Time;durP1;ratioP1;P1;durP2;ratioP2;P2;SDS_P1;SDS_P2;PMS_P1;PMS_P2;Temp;Humidity;BMP_temperature;BMP_pressure;BME280_temperature;BME280_humidity;BME280_pressure;Samples;Min_cycle;Max_cycle;Signal;HPM_P1;HPM_P2
2022/03/31 00:00:47;;;;;;;1999.90;999.90;;;9.50;99.90;;;;;;5033836;28;20465;-67
2022/03/31 00:03:15;;;;;;;1999.90;999.90;;;9.60;99.90;;;;;;5034229;28;20408;-68
2022/03/31 00:05:41;;;;;;;1999.90;999.90;;;9.60;99.90;;;;;;5033751;28;20502;-68
2022/03/31 00:08:14;;;;;;;1999.90;999.90;;;9.60;99.90;;;;;;5034226;28;20536;-68
2022/03/31 00:10:54;;;;;;;1999.90;999.90;;;9.50;99.90;;;;;;5034117;28;20434;-68
2022/03/31 00:13:26;;;;;;;1999.90;999.90;;;9.50;99.90;;;;;;5034329;28;20417;-68
2022/03/31 00:15:54;;;;;;;1999.90;999.90;;;9.40;99.90;;;;;;5033789;28;20412;-67
2022/03/31 00:18:19;;;;;;;1999.90;999.90;;;9.30;99.90;;;;;;5033989;28;20437;-68
2022/03/31 00:34:12;;;;;;;1999.90;999.90;;;9.20;99.90;;;;;;5033457;28;20922;-68
2022/03/31 00:36:41;;;;;;;1999.90;999.90;;;9.30;99.90;;;;;;5033729;28;20402;-68
2022/03/31 00:41:51;;;;;;;1999.90;999.90;;;9.30;99.90;;;;;;5033523;28;20468;-68
2022/03/31 00:44:17;;;;;;;1999.90;999.90;;;9.20;99.90;;;;;;5033595;28;20457;-68
2022/03/31 00:46:47;;;;;;;1999.90;999.90;;;9.30;99.90;;;;;;5033464;28;20475;-68
2022/03/31 00:49:13;;;;;;;1999.90;999.90;;;9.30;99.90;;;;;;5033347;28;20172;-68
2022/03/31 00:51:39;;;;;;;1999.90;999.90;;;9.30;99.90;;;;;;5033376;28;20409;-68
2022/03/31 00:54:04;;;;;;;1999.90;999.90;;;9.20;99.90;;;;;;5033039;28;20421;-68
2022/03/31 00:56:32;;;;;;;1999.90;999.90;;;9.30;99.90;;;;;;5033243;28;20171;-68
2022/03/31 00:58:57;;;;;;;1999.90;999.90;;;9.20;99.90;;;;;;5033316;28;20332;-68
2022/03/31 01:01:24;;;;;;;1999.90;999.90;;;9.30;99.90;;;;;;5033282;28;20567;-68
2022/03/31 01:03:49;;;;;;;1999.90;999.90;;;9.30;99.90;;;;;;5033178;28;20216;-68
2022/03/31 01:06:15;;;;;;;1999.90;999.90;;;9.30;99.90;;;;;;5032884;28;20924;-68
2022/03/31 01:08:42;;;;;;;1999.90;999.90;;;9.30;99.90;;;;;;5032996;28;20173;-68
2022/03/31 01:11:07;;;;;;;1999.90;999.90;;;9.20;99.90;;;;;;5032931;28;20261;-68
2022/03/31 01:13:33;;;;;;;1999.90;999.90;;;9.30;99.90;;;;;;5032883;28;20445;-68
2022/03/31 01:15:59;;;;;;;1999.90;999.90;;;9.20;99.90;;;;;;5032609;28;20171;-67
2022/03/31 01:18:25;;;;;;;1999.90;999.90;;;9.10;99.90;;;;;;5032902;28;20249;-68
2022/03/31 01:20:50;;;;;;;1999.90;999.90;;;9.10;99.90;;;;;;5032653;28;20200;-68
2022/03/31 01:23:16;;;;;;;1999.90;999.90;;;9.10;99.90;;;;;;5032735;28;20881;-68
2022/03/31 01:25:43;;;;;;;1999.90;999.90;;;9.00;99.90;;;;;;5032061;28;20167;-67
2022/03/31 01:28:09;;;;;;;1999.90;999.90;;;9.00;99.90;;;;;;5032489;28;20169;-67
2022/03/31 01:30:34;;;;;;;1999.90;999.90;;;9.00;99.90;;;;;;5032655;28;20407;-67
2022/03/31 01:33:00;;;;;;;1999.90;999.90;;;9.00;99.90;;;;;;5032664;28;20417;-67
2022/03/31 01:35:26;;;;;;;1999.90;999.90;;;9.00;99.90;;;;;;5032264;28;20193;-67
2022/03/31 01:37:52;;;;;;;1999.90;999.90;;;9.10;99.90;;;;;;5032605;28;20177;-67
2022/03/31 01:40:18;;;;;;;1999.90;999.90;;;9.10;99.90;;;;;;5032413;28;20558;-67
2022/03/31 01:42:44;;;;;;;1999.90;999.90;;;9.10;99.90;;;;;;5032570;28;20714;-67
2022/03/31 01:45:14;;;;;;;1999.90;999.90;;;9.20;99.90;;;;;;5032003;28;20449;-67
2022/03/31 01:47:40;;;;;;;1999.90;999.90;;;9.20;99.90;;;;;;5032455;28;20409;-68
2022/03/31 01:50:09;;;;;;;1999.90;999.90;;;9.30;99.90;;;;;;5032378;28;20485;-68
2022/03/31 01:52:35;;;;;;;1999.90;999.90;;;9.30;99.90;;;;;;5032285;28;20409;-67
2022/03/31 01:55:01;;;;;;;1999.90;999.90;;;9.30;99.90;;;;;;5031907;28;20425;-67
2022/03/31 01:57:26;;;;;;;1999.90;999.90;;;9.30;99.90;;;;;;5032247;28;20784;-67
2022/03/31 01:59:52;;;;;;;1999.90;999.90;;;9.30;99.90;;;;;;5032062;28;20166;-67
2022/03/31 02:02:18;;;;;;;1999.90;999.90;;;9.40;99.90;;;;;;5032261;28;20743;-68
2022/03/31 02:04:44;;;;;;;1999.90;999.90;;;9.40;99.90;;;;;;5031793;28;20194;-68
2022/03/31 02:07:10;;;;;;;1999.90;999.90;;;9.40;99.90;;;;;;5032090;28;20198;-69
2022/03/31 02:09:36;;;;;;;1999.90;999.90;;;9.40;99.90;;;;;;5032066;28;20567;-68
2022/03/31 02:12:02;;;;;;;1999.90;999.90;;;9.40;99.90;;;;;;5032062;28;20413;-67
2022/03/31 02:14:28;;;;;;;1999.90;999.90;;;9.40;99.90;;;;;;5031598;28;20434;-67
2022/03/31 02:16:55;;;;;;;1999.90;999.90;;;9.40;99.90;;;;;;5031969;28;20452;-68
2022/03/31 02:19:21;;;;;;;1999.90;999.90;;;9.30;99.90;;;;;;5032035;28;20413;-68
2022/03/31 02:21:49;;;;;;;1999.90;999.90;;;9.30;99.90;;;;;;5031771;28;20461;-68
2022/03/31 02:24:15;;;;;;;1999.90;999.90;;;9.40;99.90;;;;;;5031191;28;21109;-68
2022/03/31 02:26:41;;;;;;;1999.90;999.90;;;9.30;99.90;;;;;;5031848;28;20546;-68
2022/03/31 02:29:07;;;;;;;1999.90;999.90;;;9.30;99.90;;;;;;5031927;28;20167;-68
2022/03/31 02:31:32;;;;;;;1999.90;999.90;;;9.30;99.90;;;;;;5031952;28;20914;-69
2022/03/31 02:33:58;;;;;;;1999.90;999.90;;;9.30;99.90;;;;;;5031671;28;20190;-68
2022/03/31 02:36:26;;;;;;;1999.90;999.90;;;9.30;99.90;;;;;;5031895;28;20552;-68
2022/03/31 02:38:52;;;;;;;1999.90;999.90;;;9.30;99.90;;;;;;5031991;28;20186;-69
2022/03/31 02:41:19;;;;;;;1999.90;999.90;;;9.20;99.90;;;;;;5031782;28;20461;-69
2022/03/31 02:43:44;;;;;;;1999.90;999.90;;;9.20;99.90;;;;;;5031579;28;20446;-68
2022/03/31 02:46:10;;;;;;;1999.90;999.90;;;9.20;99.90;;;;;;5031499;28;20410;-67
2022/03/31 02:48:36;;;;;;;1999.90;999.90;;;9.20;99.90;;;;;;5031759;28;20642;-69
2022/03/31 02:51:01;;;;;;;1999.90;999.90;;;9.20;99.90;;;;;;5031627;28;20168;-68
2022/03/31 02:56:11;;;;;;;1999.90;999.90;;;9.10;99.90;;;;;;5031070;28;20261;-68
2022/03/31 02:58:36;;;;;;;1999.90;999.90;;;9.10;99.90;;;;;;5031659;28;20926;-67
2022/03/31 03:01:02;;;;;;;1999.90;999.90;;;9.00;99.90;;;;;;5031617;28;20563;-69
2022/03/31 03:03:29;;;;;;;1999.90;999.90;;;9.00;99.90;;;;;;5031433;28;20263;-69
2022/03/31 03:05:55;;;;;;;1999.90;999.90;;;9.00;99.90;;;;;;5031202;28;20987;-67
2022/03/31 03:08:20;;;;;;;1999.90;999.90;;;8.90;99.90;;;;;;5031555;28;20488;-68
2022/03/31 03:10:46;;;;;;;1999.90;999.90;;;8.80;99.90;;;;;;5031456;28;20208;-69
2022/03/31 03:13:14;;;;;;;1999.90;999.90;;;8.70;99.90;;;;;;5031441;28;20175;-68
2022/03/31 03:15:39;;;;;;;1999.90;999.90;;;8.60;99.90;;;;;;5031130;28;20193;-68
2022/03/31 03:18:05;;;;;;;1999.90;999.90;;;8.60;99.90;;;;;;5031419;28;20438;-67
2022/03/31 03:20:34;;;;;;;1999.90;999.90;;;8.60;99.90;;;;;;5031335;28;20431;-67
2022/03/31 03:22:59;;;;;;;1999.90;999.90;;;8.60;99.90;;;;;;5031599;28;20827;-68
2022/03/31 03:25:25;;;;;;;1999.90;999.90;;;8.60;99.90;;;;;;5031043;28;20432;-67
2022/03/31 03:27:51;;;;;;;1999.90;999.90;;;8.60;99.90;;;;;;5031237;28;20639;-69
2022/03/31 03:30:18;;;;;;;1999.90;999.90;;;8.60;99.90;;;;;;5031372;28;20887;-68
2022/03/31 03:32:45;;;;;;;1999.90;999.90;;;8.60;99.90;;;;;;5031200;28;20433;-68
2022/03/31 03:35:12;;;;;;;1999.90;999.90;;;8.60;99.90;;;;;;5030948;28;20521;-69
2022/03/31 03:37:39;;;;;;;1999.90;999.90;;;8.60;99.90;;;;;;5034308;28;20409;-69
2022/03/31 03:40:06;;;;;;;1999.90;999.90;;;8.60;99.90;;;;;;5034969;28;20413;-69
2022/03/31 03:42:32;;;;;;;1999.90;999.90;;;8.60;99.90;;;;;;5035001;28;20404;-68
2022/03/31 03:44:58;;;;;;;1999.90;999.90;;;8.70;99.90;;;;;;5034287;28;20449;-68
2022/03/31 03:47:24;;;;;;;1999.90;999.90;;;8.70;99.90;;;;;;5034632;28;20406;-67
2022/03/31 03:49:50;;;;;;;1999.90;999.90;;;8.70;99.90;;;;;;5034628;28;20170;-68
2022/03/31 03:52:16;;;;;;;1999.90;999.90;;;8.70;99.90;;;;;;5034652;28;20627;-69
2022/03/31 03:54:42;;;;;;;1999.90;999.90;;;8.70;99.90;;;;;;5034159;28;20434;-68
2022/03/31 03:57:08;;;;;;;1999.90;999.90;;;8.70;99.90;;;;;;5034397;28;20412;-67
2022/03/31 03:59:35;;;;;;;1999.90;999.90;;;8.60;99.90;;;;;;5034487;28;20183;-67
2022/03/31 04:02:01;;;;;;;1999.90;999.90;;;8.60;99.90;;;;;;5034251;28;20456;-67
2022/03/31 04:04:29;;;;;;;1999.90;999.90;;;8.60;99.90;;;;;;5034207;28;20830;-69
2022/03/31 04:06:55;;;;;;;1999.90;999.90;;;8.60;99.90;;;;;;5034471;28;20416;-68
2022/03/31 04:09:21;;;;;;;1999.90;999.90;;;8.50;99.90;;;;;;5034234;28;20458;-68
2022/03/31 04:11:46;;;;;;;1999.90;999.90;;;8.40;99.90;;;;;;5034152;28;20407;-68
2022/03/31 04:14:12;;;;;;;1999.90;999.90;;;8.40;99.90;;;;;;5033776;28;20195;-67
2022/03/31 04:16:37;;;;;;;1999.90;999.90;;;8.30;99.90;;;;;;5034118;28;20195;-68
2022/03/31 04:19:09;;;;;;;1999.90;999.90;;;8.30;99.90;;;;;;5034479;28;20174;-67
2022/03/31 04:21:36;;;;;;;1999.90;999.90;;;8.20;99.90;;;;;;5034033;28;20197;-68
2022/03/31 04:24:03;;;;;;;1999.90;999.90;;;8.10;99.90;;;;;;5033667;28;20478;-69
2022/03/31 04:26:28;;;;;;;1999.90;999.90;;;8.00;99.90;;;;;;5033927;28;20399;-68
2022/03/31 04:28:54;;;;;;;1999.90;999.90;;;8.00;99.90;;;;;;5033866;28;20767;-68
2022/03/31 04:31:20;;;;;;;1999.90;999.90;;;8.00;99.90;;;;;;5033879;28;20174;-68
2022/03/31 04:33:46;;;;;;;1999.90;999.90;;;8.00;99.90;;;;;;5033704;28;20268;-67
2022/03/31 04:36:11;;;;;;;1999.90;999.90;;;7.90;99.90;;;;;;5033450;28;20802;-67
2022/03/31 04:38:37;;;;;;;1999.90;999.90;;;7.80;99.90;;;;;;5033749;28;20168;-67
2022/03/31 04:41:03;;;;;;;1999.90;999.90;;;7.80;99.90;;;;;;5033518;28;20210;-68
2022/03/31 04:43:29;;;;;;;1999.90;999.90;;;7.70;99.90;;;;;;5033338;28;20169;-67
2022/03/31 04:45:54;;;;;;;1999.90;999.90;;;7.70;99.90;;;;;;5033279;28;20170;-67
2022/03/31 04:48:20;;;;;;;1999.90;999.90;;;7.70;99.90;;;;;;5033241;28;20234;-67
2022/03/31 04:50:46;;;;;;;1999.90;999.90;;;7.60;99.90;;;;;;5033480;28;20239;-68
2022/03/31 04:53:12;;;;;;;1999.90;999.90;;;7.70;99.90;;;;;;5033380;28;20412;-68
2022/03/31 04:55:38;;;;;;;1999.90;999.90;;;7.60;99.90;;;;;;5032997;28;20201;-67
2022/03/31 04:58:04;;;;;;;1999.90;999.90;;;7.70;99.90;;;;;;5033200;28;20415;-67
2022/03/31 05:00:31;;;;;;;1999.90;999.90;;;7.70;99.90;;;;;;5033162;28;20467;-67
2022/03/31 05:02:59;;;;;;;1999.90;999.90;;;7.70;99.90;;;;;;5033184;28;20419;-67
2022/03/31 05:05:25;;;;;;;1999.90;999.90;;;7.70;99.90;;;;;;5032988;28;20425;-68
2022/03/31 05:07:50;;;;;;;1999.90;999.90;;;7.80;99.90;;;;;;5033127;28;20395;-68
2022/03/31 05:10:16;;;;;;;1999.90;999.90;;;7.80;99.90;;;;;;5033035;28;20419;-68
2022/03/31 05:12:42;;;;;;;1999.90;999.90;;;7.80;99.90;;;;;;5032923;28;20407;-67
2022/03/31 05:15:08;;;;;;;1999.90;999.90;;;7.90;99.90;;;;;;5032740;28;20193;-68
2022/03/31 05:17:37;;;;;;;1999.90;999.90;;;7.90;99.90;;;;;;5032979;28;20592;-68
2022/03/31 05:20:08;;;;;;;1999.90;999.90;;;8.00;99.90;;;;;;5032551;28;20403;-68
2022/03/31 05:22:35;;;;;;;1999.90;999.90;;;8.00;99.90;;;;;;5032907;28;20403;-68
2022/03/31 05:25:00;;;;;;;1999.90;999.90;;;8.00;99.90;;;;;;5032240;28;20431;-68
2022/03/31 05:27:26;;;;;;;1999.90;999.90;;;8.10;99.90;;;;;;5032716;28;20541;-68
2022/03/31 05:29:51;;;;;;;1999.90;999.90;;;8.10;99.90;;;;;;5032691;28;20170;-68
2022/03/31 05:32:17;;;;;;;1999.90;999.90;;;8.10;99.90;;;;;;5032671;28;20283;-68
2022/03/31 05:34:43;;;;;;;1999.90;999.90;;;8.10;99.90;;;;;;5032368;28;20203;-68
2022/03/31 05:37:08;;;;;;;1999.90;999.90;;;8.20;99.90;;;;;;5032637;28;20174;-68
2022/03/31 05:39:34;;;;;;;1999.90;999.90;;;8.20;99.90;;;;;;5032624;28;20172;-68
2022/03/31 05:42:00;;;;;;;1999.90;999.90;;;8.20;99.90;;;;;;5032474;28;20204;-68
2022/03/31 05:44:26;;;;;;;1999.90;999.90;;;8.10;99.90;;;;;;5032148;28;20579;-68
2022/03/31 05:46:52;;;;;;;1999.90;999.90;;;8.10;99.90;;;;;;5032417;28;20409;-68
2022/03/31 05:49:18;;;;;;;1999.90;999.90;;;8.10;99.90;;;;;;5032357;28;20405;-69
2022/03/31 05:51:43;;;;;;;1999.90;999.90;;;8.00;99.90;;;;;;5032355;28;20164;-68
2022/03/31 05:54:09;;;;;;;1999.90;999.90;;;8.00;99.90;;;;;;5031908;28;20433;-68
2022/03/31 05:56:34;;;;;;;1999.90;999.90;;;7.90;99.90;;;;;;5032219;28;20173;-68
2022/03/31 05:59:00;;;;;;;1999.90;999.90;;;8.00;99.90;;;;;;5031755;28;20169;-68
2022/03/31 06:01:26;;;;;;;1999.90;999.90;;;8.00;99.90;;;;;;5032126;28;20196;-68
2022/03/31 06:03:52;;;;;;;1999.90;999.90;;;8.00;99.90;;;;;;5032107;28;20420;-69
2022/03/31 06:06:18;;;;;;;1999.90;999.90;;;8.00;99.90;;;;;;5031906;28;20531;-68
2022/03/31 06:08:43;;;;;;;1999.90;999.90;;;7.90;99.90;;;;;;5032148;28;20403;-68
2022/03/31 06:11:09;;;;;;;1999.90;999.90;;;8.00;99.90;;;;;;5032014;28;20181;-68
2022/03/31 06:13:35;;;;;;;1999.90;999.90;;;8.00;99.90;;;;;;5032322;28;20168;-68
2022/03/31 06:16:00;;;;;;;1999.90;999.90;;;8.00;99.90;;;;;;5031815;28;20266;-68
2022/03/31 06:18:26;;;;;;;1999.90;999.90;;;8.00;99.90;;;;;;5031994;28;20295;-68
2022/03/31 06:20:52;;;;;;;1999.90;999.90;;;8.00;99.90;;;;;;5031938;28;20203;-69
2022/03/31 06:23:18;;;;;;;1999.90;999.90;;;8.00;99.90;;;;;;5031847;28;20409;-68
2022/03/31 06:25:44;;;;;;;1999.90;999.90;;;8.00;99.90;;;;;;5031586;28;20545;-69
2022/03/31 06:28:11;;;;;;;1999.90;999.90;;;7.90;99.90;;;;;;5031892;28;20625;-68
2022/03/31 06:30:36;;;;;;;1999.90;999.90;;;7.90;99.90;;;;;;5032272;28;20897;-68
2022/03/31 06:33:02;;;;;;;1999.90;999.90;;;8.00;99.90;;;;;;5031815;28;20454;-68
2022/03/31 06:35:28;;;;;;;1999.90;999.90;;;7.90;99.90;;;;;;5031466;28;20188;-70
2022/03/31 06:37:54;;;;;;;1999.90;999.90;;;8.00;99.90;;;;;;5031822;28;20200;-67
2022/03/31 06:40:20;;;;;;;1999.90;999.90;;;8.00;99.90;;;;;;5031647;28;20196;-69
2022/03/31 06:42:47;;;;;;;1999.90;999.90;;;8.00;99.90;;;;;;5031730;28;20473;-68
2022/03/31 06:45:15;;;;;;;1999.90;999.90;;;8.00;99.90;;;;;;5031860;28;20627;-68
2022/03/31 06:47:41;;;;;;;1999.90;999.90;;;8.00;99.90;;;;;;5031825;28;20542;-68
2022/03/31 06:50:08;;;;;;;1999.90;999.90;;;8.00;99.90;;;;;;5031680;28;20396;-67
2022/03/31 06:52:34;;;;;;;1999.90;999.90;;;8.10;99.90;;;;;;5031637;28;20417;-69
2022/03/31 06:54:59;;;;;;;1999.90;999.90;;;8.00;99.90;;;;;;5031332;28;20991;-68
2022/03/31 06:57:25;;;;;;;1999.90;999.90;;;8.00;99.90;;;;;;5031674;28;20458;-68
2022/03/31 06:59:51;;;;;;;1999.90;999.90;;;8.00;99.90;;;;;;5031774;28;20266;-67
2022/03/31 07:02:17;;;;;;;1999.90;999.90;;;8.00;99.90;;;;;;5031569;28;20224;-68
2022/03/31 07:04:42;;;;;;;1999.90;999.90;;;8.10;99.90;;;;;;5031145;28;20724;-68
2022/03/31 07:07:08;;;;;;;1999.90;999.90;;;8.10;99.90;;;;;;5031421;28;20167;-68
2022/03/31 07:09:34;;;;;;;1999.90;999.90;;;8.00;99.90;;;;;;5031532;28;20158;-68
2022/03/31 07:11:59;;;;;;;1999.90;999.90;;;8.00;99.90;;;;;;5035216;28;20220;-68
2022/03/31 07:14:25;;;;;;;1999.90;999.90;;;8.00;99.90;;;;;;5034911;28;20200;-68
2022/03/31 07:16:51;;;;;;;1999.90;999.90;;;8.10;99.90;;;;;;5035243;28;20244;-68
2022/03/31 07:19:17;;;;;;;1999.90;999.90;;;8.10;99.90;;;;;;5035194;28;20555;-69
2022/03/31 07:21:43;;;;;;;1999.90;999.90;;;8.10;99.90;;;;;;5034974;28;20546;-68
2022/03/31 07:24:09;;;;;;;1999.90;999.90;;;8.10;99.90;;;;;;5034889;28;20204;-69
2022/03/31 07:26:35;;;;;;;1999.90;999.90;;;8.10;99.90;;;;;;5035036;28;20994;-67
2022/03/31 07:29:00;;;;;;;1999.90;999.90;;;8.10;99.90;;;;;;5035158;28;20539;-68
2022/03/31 07:31:28;;;;;;;1999.90;999.90;;;8.00;99.90;;;;;;5034923;28;20176;-68
2022/03/31 07:33:54;;;;;;;1999.90;999.90;;;8.10;99.90;;;;;;5034872;28;20198;-68
2022/03/31 07:36:20;;;;;;;1999.90;999.90;;;8.10;99.90;;;;;;5034548;28;20408;-69
2022/03/31 07:38:46;;;;;;;1999.90;999.90;;;8.10;99.90;;;;;;5034806;28;20401;-68
2022/03/31 07:41:12;;;;;;;1999.90;999.90;;;8.20;99.90;;;;;;5034677;28;20207;-68
2022/03/31 07:43:38;;;;;;;1999.90;999.90;;;8.20;99.90;;;;;;5034848;28;20253;-68
2022/03/31 07:46:04;;;;;;;1999.90;999.90;;;8.10;99.90;;;;;;5034451;28;20405;-69
2022/03/31 07:48:30;;;;;;;1999.90;999.90;;;8.00;99.90;;;;;;5034637;28;20921;-68
2022/03/31 07:50:58;;;;;;;1999.90;999.90;;;8.10;99.90;;;;;;5034580;28;20493;-69
2022/03/31 07:53:24;;;;;;;1999.90;999.90;;;8.10;99.90;;;;;;5034437;28;20678;-68
2022/03/31 07:55:50;;;;;;;1999.90;999.90;;;8.30;99.90;;;;;;5034426;28;20410;-68
2022/03/31 07:58:15;;;;;;;1999.90;999.90;;;8.40;99.90;;;;;;5034442;28;20416;-67
2022/03/31 08:00:42;;;;;;;1999.90;999.90;;;8.50;99.90;;;;;;5034501;28;20292;-69
2022/03/31 08:03:07;;;;;;;1999.90;999.90;;;8.50;99.90;;;;;;5034165;28;20234;-68
2022/03/31 08:05:37;;;;;;;1999.90;999.90;;;8.60;99.90;;;;;;5033421;28;20418;-68
2022/03/31 08:08:03;;;;;;;1999.90;999.90;;;8.80;99.90;;;;;;5034406;28;20181;-68
2022/03/31 08:10:28;;;;;;;1999.90;999.90;;;8.80;99.90;;;;;;5034380;28;20417;-68
2022/03/31 08:12:55;;;;;;;1999.90;999.90;;;8.90;99.90;;;;;;5034271;28;20174;-68
2022/03/31 08:15:23;;;;;;;1999.90;999.90;;;9.00;99.90;;;;;;5033923;28;20202;-68
2022/03/31 08:17:50;;;;;;;1999.90;999.90;;;9.10;99.90;;;;;;5034066;28;20409;-68
2022/03/31 08:20:16;;;;;;;1999.90;999.90;;;9.20;99.90;;;;;;5033879;28;20438;-68
2022/03/31 08:22:43;;;;;;;1999.90;999.90;;;9.20;99.90;;;;;;5033338;28;20414;-68
2022/03/31 08:25:10;;;;;;;1999.90;999.90;;;9.20;99.90;;;;;;5033530;28;20429;-68
2022/03/31 08:27:38;;;;;;;1999.90;999.90;;;9.30;99.90;;;;;;5033899;28;20480;-68
2022/03/31 08:30:08;;;;;;;1999.90;999.90;;;9.30;99.90;;;;;;5033920;28;20951;-69
2022/03/31 08:32:39;;;;;;;1999.90;999.90;;;9.30;99.90;;;;;;5033723;28;20401;-69
2022/03/31 08:35:06;;;;;;;1999.90;999.90;;;9.20;99.90;;;;;;5033640;28;20523;-68
2022/03/31 08:37:33;;;;;;;1999.90;999.90;;;9.20;99.90;;;;;;5033703;28;20393;-68
2022/03/31 08:39:58;;;;;;;1999.90;999.90;;;9.20;99.90;;;;;;5033659;28;20405;-68
2022/03/31 08:42:24;;;;;;;1999.90;999.90;;;9.10;99.90;;;;;;5033553;28;20452;-68
2022/03/31 08:44:51;;;;;;;1999.90;999.90;;;9.10;99.90;;;;;;5033220;28;20202;-68
2022/03/31 08:47:18;;;;;;;1999.90;999.90;;;9.10;99.90;;;;;;5033512;28;20561;-69
2022/03/31 08:49:46;;;;;;;1999.90;999.90;;;8.90;99.90;;;;;;5033455;28;20466;-68
2022/03/31 08:52:12;;;;;;;1999.90;999.90;;;8.80;99.90;;;;;;5026716;28;20911;-68
2022/03/31 08:54:39;;;;;;;1999.90;999.90;;;8.70;99.90;;;;;;5006358;28;20445;-68
2022/03/31 08:57:05;;;;;;;1999.90;999.90;;;8.70;99.90;;;;;;5010015;28;20406;-68
2022/03/31 08:59:31;;;;;;;1999.90;999.90;;;8.70;99.90;;;;;;5007362;28;20510;-68
2022/03/31 09:01:57;;;;;;;1999.90;999.90;;;8.80;99.90;;;;;;5011061;28;20461;-68
2022/03/31 09:04:24;;;;;;;1999.90;999.90;;;8.90;99.90;;;;;;5010535;28;20433;-68
2022/03/31 09:07:01;;;;;;;1999.90;999.90;;;8.90;99.90;;;;;;5010640;28;20497;-68
2022/03/31 09:09:28;;;;;;;1999.90;999.90;;;8.90;99.90;;;;;;5008974;28;20429;-68
2022/03/31 09:11:53;;;;;;;1999.90;999.90;;;8.90;99.90;;;;;;5009362;28;20425;-68
2022/03/31 09:14:31;;;;;;;1999.90;999.90;;;8.90;99.90;;;;;;5008462;28;20849;-68
2022/03/31 09:16:57;;;;;;;1999.90;999.90;;;8.90;99.90;;;;;;5007632;28;20177;-68
2022/03/31 09:19:24;;;;;;;1999.90;999.90;;;9.00;99.90;;;;;;5008597;28;20418;-69
2022/03/31 09:21:52;;;;;;;1999.90;999.90;;;9.00;99.90;;;;;;5010266;28;20465;-68
2022/03/31 09:24:20;;;;;;;1999.90;999.90;;;9.20;99.90;;;;;;5008868;28;20529;-68
2022/03/31 09:26:50;;;;;;;1999.90;999.90;;;9.30;99.90;;;;;;5009586;28;20415;-67
2022/03/31 09:29:19;;;;;;;1999.90;999.90;;;9.30;99.90;;;;;;5011205;28;20949;-68
2022/03/31 09:31:46;;;;;;;1999.90;999.90;;;9.20;99.90;;;;;;5009928;28;21140;-68
2022/03/31 09:34:13;;;;;;;1999.90;999.90;;;9.20;99.90;;;;;;5008608;28;20443;-68
2022/03/31 09:36:42;;;;;;;1999.90;999.90;;;9.10;99.90;;;;;;5009620;28;20853;-68
2022/03/31 09:39:13;;;;;;;1999.90;999.90;;;9.10;99.90;;;;;;5010003;28;20418;-68
2022/03/31 09:41:41;;;;;;;1999.90;999.90;;;9.10;99.90;;;;;;5010343;28;20460;-69
2022/03/31 09:44:12;;;;;;;1999.90;999.90;;;9.10;99.90;;;;;;5009161;28;20453;-68
2022/03/31 09:46:40;;;;;;;1999.90;999.90;;;8.90;99.90;;;;;;5009224;28;20428;-68
2022/03/31 09:49:17;;;;;;;1999.90;999.90;;;8.90;99.90;;;;;;5008043;28;20417;-68
2022/03/31 09:51:48;;;;;;;1999.90;999.90;;;9.00;99.90;;;;;;5007985;28;20443;-69
2022/03/31 09:54:15;;;;;;;1999.90;999.90;;;8.90;99.90;;;;;;5007010;28;20429;-68
2022/03/31 09:56:41;;;;;;;1999.90;999.90;;;9.00;99.90;;;;;;5007846;28;20415;-68
2022/03/31 09:59:09;;;;;;;1999.90;999.90;;;9.00;99.90;;;;;;5007502;28;20934;-68
2022/03/31 10:01:36;;;;;;;1999.90;999.90;;;9.10;99.90;;;;;;5008050;28;21267;-67
2022/03/31 10:04:04;;;;;;;1999.90;999.90;;;9.10;99.90;;;;;;5007284;28;20590;-69
2022/03/31 10:06:34;;;;;;;1999.90;999.90;;;9.20;99.90;;;;;;5007691;28;20401;-68
2022/03/31 10:09:00;;;;;;;1999.90;999.90;;;9.30;99.90;;;;;;5007925;28;20925;-68
2022/03/31 10:11:28;;;;;;;1999.90;999.90;;;9.40;99.90;;;;;;5008320;28;20423;-68
2022/03/31 10:14:24;;;;;;;1999.90;999.90;;;9.50;99.90;;;;;;5007966;28;20433;-68
2022/03/31 10:16:55;;;;;;;1999.90;999.90;;;9.60;99.90;;;;;;5007327;28;20418;-69
2022/03/31 10:19:42;;;;;;;1999.90;999.90;;;9.60;99.90;;;;;;5007629;28;20425;-68
2022/03/31 10:25:03;;;;;;;1999.90;999.90;;;9.70;99.90;;;;;;5005315;28;21367;-69
2022/03/31 10:27:31;;;;;;;1999.90;999.90;;;9.60;99.90;;;;;;5006129;28;20547;-69
2022/03/31 10:30:21;;;;;;;1999.90;999.90;;;9.80;99.90;;;;;;5008076;28;20458;-69
2022/03/31 10:32:56;;;;;;;1999.90;999.90;;;9.80;99.90;;;;;;5007398;28;20511;-69
2022/03/31 10:35:33;;;;;;;1999.90;999.90;;;9.80;99.90;;;;;;5006749;28;21134;-69
2022/03/31 10:38:29;;;;;;;1999.90;999.90;;;9.90;99.90;;;;;;5007433;28;20449;-68
2022/03/31 10:41:03;;;;;;;1999.90;999.90;;;9.90;99.90;;;;;;5007912;28;20490;-68
2022/03/31 10:43:31;;;;;;;1999.90;999.90;;;10.00;99.90;;;;;;5006953;28;20420;-68
2022/03/31 10:46:00;;;;;;;1999.90;999.90;;;9.90;99.90;;;;;;5008715;28;20427;-68
2022/03/31 10:48:31;;;;;;;1999.90;999.90;;;9.90;99.90;;;;;;5010779;28;20510;-68
2022/03/31 10:51:06;;;;;;;1999.90;999.90;;;9.90;99.90;;;;;;5011855;28;20415;-68
2022/03/31 10:53:34;;;;;;;1999.90;999.90;;;9.90;99.90;;;;;;5011045;28;20943;-68
2022/03/31 10:56:02;;;;;;;1999.90;999.90;;;9.70;99.90;;;;;;5010537;28;20422;-69
2022/03/31 10:58:29;;;;;;;1999.90;999.90;;;9.60;99.90;;;;;;5010407;28;20418;-69
2022/03/31 11:00:58;;;;;;;1999.90;999.90;;;9.50;99.90;;;;;;5010750;28;20543;-69
2022/03/31 11:03:24;;;;;;;1999.90;999.90;;;9.30;99.90;;;;;;5010860;28;20510;-69
2022/03/31 11:05:50;;;;;;;1999.90;999.90;;;9.20;99.90;;;;;;5009994;28;20445;-68
2022/03/31 11:08:19;;;;;;;1999.90;999.90;;;9.20;99.90;;;;;;5010729;28;20471;-68
2022/03/31 11:10:51;;;;;;;1999.90;999.90;;;8.90;99.90;;;;;;5010869;28;20436;-68
2022/03/31 11:13:20;;;;;;;1999.90;999.90;;;8.80;99.90;;;;;;5010978;28;20431;-69
2022/03/31 11:15:54;;;;;;;1999.90;999.90;;;8.70;99.90;;;;;;5010297;28;20442;-68
2022/03/31 11:18:21;;;;;;;1999.90;999.90;;;8.60;99.90;;;;;;5010962;28;20420;-68
2022/03/31 11:20:49;;;;;;;1999.90;999.90;;;8.60;99.90;;;;;;5012686;28;20593;-68
2022/03/31 11:23:15;;;;;;;1999.90;999.90;;;8.60;99.90;;;;;;5011926;28;20425;-68
2022/03/31 11:25:43;;;;;;;1999.90;999.90;;;8.50;99.90;;;;;;5008761;28;20441;-68
2022/03/31 11:28:12;;;;;;;1999.90;999.90;;;8.50;99.90;;;;;;5011299;28;20957;-68
2022/03/31 11:30:38;;;;;;;1999.90;999.90;;;8.50;99.90;;;;;;5009870;28;20536;-68
2022/03/31 11:33:04;;;;;;;1999.90;999.90;;;8.40;99.90;;;;;;5011133;28;20428;-68
2022/03/31 11:35:31;;;;;;;1999.90;999.90;;;8.30;99.90;;;;;;5009648;28;20439;-68
2022/03/31 11:38:02;;;;;;;1999.90;999.90;;;8.10;99.90;;;;;;5010069;28;20466;-68
2022/03/31 11:40:32;;;;;;;1999.90;999.90;;;8.10;99.90;;;;;;5010906;28;20933;-67
2022/03/31 11:43:00;;;;;;;1999.90;999.90;;;8.10;99.90;;;;;;5010781;28;21114;-68
2022/03/31 11:45:33;;;;;;;1999.90;999.90;;;8.10;99.90;;;;;;5008829;28;20511;-69
2022/03/31 11:48:00;;;;;;;1999.90;999.90;;;8.10;99.90;;;;;;5010160;28;20413;-68
2022/03/31 11:50:27;;;;;;;1999.90;999.90;;;8.10;99.90;;;;;;5010431;28;20420;-69
2022/03/31 11:52:54;;;;;;;1999.90;999.90;;;8.10;99.90;;;;;;5010114;28;20436;-68
2022/03/31 11:55:21;;;;;;;1999.90;999.90;;;8.10;99.90;;;;;;5009292;28;20433;-68
2022/03/31 11:57:55;;;;;;;1999.90;999.90;;;8.10;99.90;;;;;;5009148;28;20463;-68
2022/03/31 12:00:22;;;;;;;1999.90;999.90;;;8.10;99.90;;;;;;5010027;28;20470;-68
2022/03/31 12:02:59;;;;;;;1999.90;999.90;;;8.10;99.90;;;;;;5010390;28;20423;-68
2022/03/31 12:05:25;;;;;;;1999.90;999.90;;;8.10;99.90;;;;;;5009152;28;20435;-68
2022/03/31 12:07:52;;;;;;;1999.90;999.90;;;8.10;99.90;;;;;;5009272;28;20952;-69
2022/03/31 12:10:18;;;;;;;1999.90;999.90;;;8.10;99.90;;;;;;5010327;28;20453;-68
2022/03/31 12:12:55;;;;;;;1999.90;999.90;;;8.10;99.90;;;;;;5009750;28;20434;-69
2022/03/31 12:15:26;;;;;;;1999.90;999.90;;;8.00;99.90;;;;;;5008675;28;20447;-69
2022/03/31 12:18:01;;;;;;;1999.90;999.90;;;8.00;99.90;;;;;;5008941;28;20426;-68
2022/03/31 12:20:27;;;;;;;1999.90;999.90;;;7.90;99.90;;;;;;5007121;28;20511;-68
2022/03/31 12:22:53;;;;;;;1999.90;999.90;;;8.00;99.90;;;;;;5006790;28;20464;-68
2022/03/31 12:25:30;;;;;;;1999.90;999.90;;;7.90;99.90;;;;;;5007676;28;20939;-68
2022/03/31 12:28:06;;;;;;;1999.90;999.90;;;7.90;99.90;;;;;;5009588;28;20461;-69
2022/03/31 12:30:38;;;;;;;1999.90;999.90;;;7.80;99.90;;;;;;5008911;28;20497;-68